createdAt,value
2022-10-14T00:02:08.998Z,99927.13
2022-10-14T00:05:12.176Z,99923.84
2022-10-14T00:08:14.665Z,99923.22
2022-10-14T00:11:24.098Z,99922.41
2022-10-14T00:14:26.877Z,99925.37
2022-10-14T00:17:30.645Z,99925.81
2022-10-14T00:20:33.256Z,99912.94
2022-10-14T00:23:36.488Z,99919.81
2022-10-14T00:26:40.587Z,99911.28
2022-10-14T00:29:43.518Z,99926.72
2022-10-14T00:32:46.335Z,99916.09
2022-10-14T00:36:00.896Z,99921.97
2022-10-14T00:39:05.294Z,99914.06
2022-10-14T00:42:14.564Z,99911.56
2022-10-14T00:45:21.725Z,99908.84
2022-10-14T00:48:26.422Z,99907.56
2022-10-14T00:51:31.114Z,99905.47
2022-10-14T00:55:18.744Z,99909.00
2022-10-14T00:58:21.558Z,99905.00
2022-10-14T01:01:24.898Z,99875.19
2022-10-14T01:04:27.902Z,99905.31
2022-10-14T01:07:39.777Z,99907.38
2022-10-14T01:10:53.484Z,99906.50
2022-10-14T01:14:02.681Z,99904.28
2022-10-14T01:17:15.583Z,99905.22
2022-10-14T01:20:21.418Z,99903.13
2022-10-14T01:23:42.029Z,99894.00
2022-10-14T01:27:13.937Z,99879.47
2022-10-14T01:30:28.903Z,99892.72
2022-10-14T01:33:39.914Z,99884.66
2022-10-14T01:36:42.434Z,99884.28
2022-10-14T01:39:51.066Z,99887.81
2022-10-14T01:42:55.681Z,99887.00
2022-10-14T01:46:02.275Z,99891.59
2022-10-14T01:49:10.869Z,99892.44
2022-10-14T01:52:22.976Z,99882.03
2022-10-14T01:55:30.503Z,99875.72
2022-10-14T01:58:35.165Z,99863.41
2022-10-14T02:01:38.528Z,99866.00
2022-10-14T02:04:41.709Z,99879.69
2022-10-14T02:07:50.944Z,99881.84
2022-10-14T02:11:21.557Z,99881.22
2022-10-14T02:14:43.795Z,99883.56
2022-10-14T02:18:09.602Z,99872.81
2022-10-14T02:21:38.717Z,99864.81
2022-10-14T02:24:46.598Z,99867.16
2022-10-14T02:27:52.410Z,99865.56
2022-10-14T02:31:00.699Z,99860.81
2022-10-14T02:34:09.682Z,99864.81
2022-10-14T02:37:15.039Z,99860.28
2022-10-14T02:40:43.771Z,99859.69
2022-10-14T02:43:46.528Z,99838.12
2022-10-14T02:46:49.598Z,99843.13
2022-10-14T02:49:52.677Z,99850.97
2022-10-14T02:52:55.801Z,99853.44
2022-10-14T02:55:58.453Z,99849.28
2022-10-14T02:59:01.498Z,99847.19
2022-10-14T03:02:04.647Z,99842.88
2022-10-14T03:05:08.677Z,99859.00
2022-10-14T03:08:11.581Z,99832.56
2022-10-14T03:11:14.982Z,99844.59
2022-10-14T03:14:17.718Z,99835.38
2022-10-14T03:17:21.978Z,99849.91
2022-10-14T03:20:26.005Z,99840.56
2022-10-14T03:23:29.122Z,99825.47
2022-10-14T03:26:31.951Z,99828.03
2022-10-14T03:29:34.981Z,99823.72
2022-10-14T03:32:39.293Z,99845.12
2022-10-14T03:35:43.302Z,99840.97
2022-10-14T03:38:46.826Z,99849.03
2022-10-14T03:41:51.694Z,99852.38
2022-10-14T03:44:56.207Z,99838.66
2022-10-14T03:47:59.473Z,99851.00
2022-10-14T03:51:02.288Z,99846.66
2022-10-14T03:54:05.955Z,99834.22
2022-10-14T03:57:08.854Z,99839.94
2022-10-14T04:00:15.239Z,99833.47
2022-10-14T04:03:17.785Z,99824.59
2022-10-14T04:06:21.029Z,99828.56
2022-10-14T04:09:27.696Z,99828.13
2022-10-14T04:12:31.123Z,99828.13
2022-10-14T04:15:36.468Z,99830.84
2022-10-14T04:18:40.301Z,99830.47
2022-10-14T04:21:44.348Z,99823.28
2022-10-14T04:24:47.240Z,99823.75
2022-10-14T04:27:50.177Z,99820.00
2022-10-14T04:30:53.191Z,99838.44
2022-10-14T04:33:56.314Z,99837.69
2022-10-14T04:37:00.411Z,99844.97
2022-10-14T04:40:05.639Z,99833.78
2022-10-14T04:43:08.748Z,99842.66
2022-10-14T04:46:11.940Z,99832.72
2022-10-14T04:49:16.631Z,99823.81
2022-10-14T04:52:22.030Z,99836.25
2022-10-14T04:55:26.617Z,99828.41
2022-10-14T04:58:29.603Z,99837.09
2022-10-14T05:01:34.145Z,99825.03
2022-10-14T05:04:37.150Z,99820.88
2022-10-14T05:07:40.235Z,99856.97
2022-10-14T05:10:44.563Z,99846.13
2022-10-14T05:13:49.979Z,99852.84
2022-10-14T05:16:52.991Z,99832.72
2022-10-14T05:19:57.193Z,99862.84
2022-10-14T05:23:01.243Z,99854.63
2022-10-14T05:26:04.751Z,99859.16
2022-10-14T05:29:09.313Z,99852.62
2022-10-14T05:32:13.819Z,99853.06
2022-10-14T05:35:29.089Z,99858.03
2022-10-14T05:38:40.103Z,99857.97
2022-10-14T05:41:42.916Z,99858.25
2022-10-14T05:44:46.246Z,99841.28
2022-10-14T05:47:49.035Z,99860.34
2022-10-14T05:50:52.136Z,99850.66
2022-10-14T05:53:57.761Z,99854.63
2022-10-14T05:57:00.710Z,99845.50
2022-10-14T06:00:06.491Z,99857.63
2022-10-14T06:03:19.868Z,99855.03
2022-10-14T06:06:28.027Z,99848.91
2022-10-14T06:09:31.639Z,99871.91
2022-10-14T06:12:34.614Z,99873.84
2022-10-14T06:15:37.830Z,99874.88
2022-10-14T06:18:41.245Z,99871.59
2022-10-14T06:21:44.933Z,99876.59
2022-10-14T06:24:47.917Z,99883.31
2022-10-14T06:27:50.565Z,99889.28
2022-10-14T06:30:54.762Z,99877.88
2022-10-14T06:33:57.522Z,99866.63
2022-10-14T06:37:02.373Z,99875.06
2022-10-14T06:40:06.121Z,99874.00
2022-10-14T06:43:09.078Z,99867.97
2022-10-14T06:46:11.803Z,99890.75
2022-10-14T06:49:15.048Z,99894.56
2022-10-14T06:52:17.697Z,99883.53
2022-10-14T06:55:20.800Z,99897.81
2022-10-14T06:58:23.602Z,99895.72
2022-10-14T07:01:27.321Z,99894.34
2022-10-14T07:04:30.098Z,99892.34
2022-10-14T07:07:33.518Z,99891.75
2022-10-14T07:10:36.106Z,99875.34
2022-10-14T07:13:40.086Z,99893.84
2022-10-14T07:16:45.738Z,99891.59
2022-10-14T07:19:48.743Z,99888.06
2022-10-14T07:22:55.363Z,99875.84
2022-10-14T07:25:59.566Z,99893.84
2022-10-14T07:29:05.191Z,99893.13
2022-10-14T07:32:08.158Z,99891.44
2022-10-14T07:35:10.932Z,99896.53
2022-10-14T07:38:13.926Z,99893.53
2022-10-14T07:41:20.348Z,99896.94
2022-10-14T07:44:26.496Z,99879.75
2022-10-14T07:47:30.255Z,99885.09
2022-10-14T07:50:33.144Z,99873.63
2022-10-14T07:53:36.614Z,99887.31
2022-10-14T07:56:41.704Z,99886.44
2022-10-14T07:59:44.439Z,99884.38
2022-10-14T08:02:47.583Z,99876.25
2022-10-14T08:05:51.030Z,99880.88
2022-10-14T08:08:54.041Z,99880.19
2022-10-14T08:11:57.260Z,99871.78
2022-10-14T08:15:00.048Z,99868.56
2022-10-14T08:18:03.090Z,99870.72
2022-10-14T08:21:05.767Z,99870.59
2022-10-14T08:24:08.905Z,99882.50
2022-10-14T08:27:11.551Z,99883.69
2022-10-14T08:30:14.480Z,99885.09
2022-10-14T08:33:17.987Z,99876.50
2022-10-14T08:36:21.862Z,99887.84
2022-10-14T08:39:24.617Z,99881.47
2022-10-14T08:42:30.782Z,99878.37
2022-10-14T08:45:42.771Z,99865.78
2022-10-14T08:48:48.235Z,99870.19
2022-10-14T08:52:06.613Z,99858.78
2022-10-14T08:55:23.792Z,99869.00
2022-10-14T08:58:31.958Z,99871.78
2022-10-14T09:01:40.357Z,99862.16
2022-10-14T09:04:43.202Z,99875.44
2022-10-14T09:07:48.629Z,99873.28
2022-10-14T09:10:51.578Z,99882.97
2022-10-14T09:14:01.114Z,99872.91
2022-10-14T09:17:18.070Z,99874.91
2022-10-14T09:20:25.684Z,99875.94
2022-10-14T09:23:28.387Z,99873.41
2022-10-14T09:26:44.069Z,99874.31
2022-10-14T09:29:54.095Z,99875.22
2022-10-14T09:32:59.811Z,99856.25
2022-10-14T09:36:02.548Z,99864.94
2022-10-14T09:39:06.476Z,99867.72
2022-10-14T09:42:18.237Z,99863.19
2022-10-14T09:45:24.562Z,99869.34
2022-10-14T09:48:52.207Z,99873.47
2022-10-14T09:51:57.065Z,99863.94
2022-10-14T09:55:01.672Z,99852.09
2022-10-14T09:58:08.588Z,99852.50
2022-10-14T10:01:21.038Z,99864.72
2022-10-14T10:04:50.285Z,99874.09
2022-10-14T10:08:14.411Z,99866.97
2022-10-14T10:11:35.743Z,99872.28
2022-10-14T10:14:38.297Z,99868.62
2022-10-14T10:17:41.317Z,99859.62
2022-10-14T10:21:02.286Z,99854.63
2022-10-14T10:24:23.743Z,99861.91
2022-10-14T10:27:37.394Z,99848.41
2022-10-14T10:31:24.814Z,99850.59
2022-10-14T10:35:04.297Z,99852.22
2022-10-14T10:38:20.843Z,99846.34
2022-10-14T10:41:48.454Z,99845.34
2022-10-14T10:44:59.552Z,99834.37
2022-10-14T10:48:33.470Z,99834.19
2022-10-14T10:51:46.293Z,99834.63
2022-10-14T10:55:24.954Z,99826.19
2022-10-14T10:58:37.003Z,99824.16
2022-10-14T11:01:53.675Z,99819.47
2022-10-14T11:05:15.937Z,99818.81
2022-10-14T11:08:58.255Z,99808.41
2022-10-14T11:12:17.814Z,99811.75
2022-10-14T11:15:35.160Z,99818.37
2022-10-14T11:18:51.368Z,99810.41
2022-10-14T11:22:40.141Z,99809.75
2022-10-14T11:26:11.981Z,99799.12
2022-10-14T11:29:35.428Z,99795.13
2022-10-14T11:32:57.166Z,99794.13
2022-10-14T11:36:19.415Z,99777.47
2022-10-14T11:39:35.917Z,99791.47
2022-10-14T11:43:09.890Z,99787.37
2022-10-14T11:46:18.087Z,99794.84
2022-10-14T11:49:30.757Z,99781.31
2022-10-14T11:52:42.035Z,99778.28
2022-10-14T11:55:51.360Z,99770.59
2022-10-14T11:58:55.833Z,99780.13
2022-10-14T12:02:04.034Z,99755.75
2022-10-14T12:05:31.704Z,99769.97
2022-10-14T12:09:05.915Z,99770.03
2022-10-14T12:12:13.537Z,99756.59
2022-10-14T12:15:21.120Z,99758.44
2022-10-14T12:18:24.169Z,99762.25
2022-10-14T12:21:38.081Z,99747.69
2022-10-14T12:24:46.503Z,99761.97
2022-10-14T12:27:52.301Z,99756.25
2022-10-14T12:31:34.270Z,99756.06
2022-10-14T12:34:39.418Z,99754.41
2022-10-14T12:37:50.316Z,99738.25
2022-10-14T12:40:53.592Z,99744.28
2022-10-14T12:44:05.284Z,99729.66
2022-10-14T12:47:18.821Z,99722.28
2022-10-14T12:50:37.319Z,99724.84
2022-10-14T12:53:48.418Z,99733.97
2022-10-14T12:57:42.342Z,99727.31
2022-10-14T13:00:55.118Z,99729.97
2022-10-14T13:04:04.369Z,99719.94
2022-10-14T13:07:46.149Z,99722.50
2022-10-14T13:11:09.233Z,99724.44
2022-10-14T13:14:35.591Z,99720.56
2022-10-14T13:17:46.002Z,99706.84
2022-10-14T13:20:51.571Z,99702.75
2022-10-14T13:23:55.385Z,99708.28
2022-10-14T13:27:09.830Z,99700.59
2022-10-14T13:30:35.322Z,99692.28
2022-10-14T13:33:46.004Z,99701.50
2022-10-14T13:37:02.628Z,99703.47
2022-10-14T13:40:34.704Z,99699.56
2022-10-14T13:43:42.367Z,99695.06
2022-10-14T13:46:49.187Z,99697.03
2022-10-14T13:49:52.568Z,99691.59
2022-10-14T13:53:10.377Z,99690.16
2022-10-14T13:56:23.313Z,99677.34
2022-10-14T13:59:43.761Z,99680.03
2022-10-14T14:02:51.812Z,99677.28
2022-10-14T14:05:59.262Z,99674.28
2022-10-14T14:09:06.588Z,99667.53
2022-10-14T14:12:13.403Z,99655.88
2022-10-14T14:15:25.401Z,99672.03
2022-10-14T14:18:56.405Z,99663.53
2022-10-14T14:22:29.339Z,99665.78
2022-10-14T14:25:34.675Z,99666.09
2022-10-14T14:28:39.773Z,99660.72
2022-10-14T14:35:12.992Z,99676.81
2022-10-14T14:38:34.813Z,99676.88
2022-10-14T14:41:37.455Z,99672.78
2022-10-14T14:44:43.293Z,99677.56
2022-10-14T14:47:48.163Z,99680.28
2022-10-14T14:50:51.582Z,99685.69
2022-10-14T14:53:55.460Z,99680.44
2022-10-14T14:57:06.237Z,99679.13
2022-10-14T15:00:19.129Z,99687.16
2022-10-14T15:03:26.258Z,99681.69
2022-10-14T15:06:29.633Z,99683.13
2022-10-14T15:09:47.727Z,99678.63
2022-10-14T15:12:56.421Z,99667.91
2022-10-14T15:16:00.507Z,99682.09
2022-10-14T15:19:38.396Z,99681.16
2022-10-14T15:22:43.752Z,99682.94
2022-10-14T15:25:58.082Z,99681.44
2022-10-14T15:32:27.262Z,99677.00
2022-10-14T15:35:31.301Z,99688.97
2022-10-14T15:38:34.290Z,99689.91
2022-10-14T15:41:38.678Z,99689.72
2022-10-14T15:44:41.694Z,99687.84
2022-10-14T15:47:45.673Z,99689.59
2022-10-14T15:50:48.751Z,99687.16
2022-10-14T15:53:52.690Z,99683.41
2022-10-14T16:00:04.598Z,99694.16
2022-10-14T16:03:17.739Z,99693.12
2022-10-14T16:06:22.812Z,99683.59
2022-10-14T16:09:29.402Z,99694.03
2022-10-14T16:12:32.657Z,99696.50
2022-10-14T16:15:57.168Z,99699.19
2022-10-14T16:19:04.968Z,99697.28
2022-10-14T16:22:07.786Z,99701.94
2022-10-14T16:25:21.650Z,99698.09
2022-10-14T16:28:24.493Z,99693.94
2022-10-14T16:31:27.594Z,99702.69
2022-10-14T16:34:30.302Z,99705.97
2022-10-14T16:37:33.390Z,99700.16
2022-10-14T16:40:36.964Z,99711.94
2022-10-14T16:43:41.504Z,99714.13
2022-10-14T16:47:03.073Z,99707.53
2022-10-14T16:50:07.702Z,99706.13
2022-10-14T16:53:29.170Z,99704.97
2022-10-14T16:56:52.331Z,99711.25
2022-10-14T16:59:55.147Z,99702.13
2022-10-14T17:02:58.338Z,99707.75
2022-10-14T17:06:01.126Z,99711.78
2022-10-14T17:09:04.504Z,99706.50
2022-10-14T17:12:13.026Z,99717.34
2022-10-14T17:15:17.383Z,99723.53
2022-10-14T17:18:25.439Z,99718.53
2022-10-14T17:21:29.551Z,99722.78
2022-10-14T17:24:32.549Z,99717.81
2022-10-14T17:27:35.625Z,99702.34
2022-10-14T17:30:38.421Z,99720.16
2022-10-14T17:33:42.324Z,99724.41
2022-10-14T17:36:45.246Z,99724.88
2022-10-14T17:39:49.023Z,99727.78
2022-10-14T17:42:51.743Z,99728.84
2022-10-14T17:46:05.097Z,99733.97
2022-10-14T17:49:11.075Z,99735.00
2022-10-14T17:52:14.179Z,99738.44
2022-10-14T17:55:20.727Z,99745.38
2022-10-14T17:58:27.073Z,99746.06
2022-10-14T18:01:37.647Z,99744.03
2022-10-14T18:04:53.651Z,99731.97
2022-10-14T18:07:56.442Z,99736.28
2022-10-14T18:11:08.499Z,99733.22
2022-10-14T18:14:14.603Z,99738.34
2022-10-14T18:17:17.725Z,99740.44
2022-10-14T18:20:20.510Z,99735.75
2022-10-14T18:23:28.073Z,99736.50
2022-10-14T18:26:31.286Z,99738.31
2022-10-14T18:29:34.413Z,99743.13
2022-10-14T18:32:37.637Z,99740.31
2022-10-14T18:35:44.055Z,99738.94
2022-10-14T18:38:53.981Z,99752.72
2022-10-14T18:41:58.135Z,99740.81
2022-10-14T18:45:01.543Z,99741.78
2022-10-14T18:48:05.046Z,99744.94
2022-10-14T18:51:09.283Z,99745.12
2022-10-14T18:54:18.815Z,99739.34
2022-10-14T18:57:21.885Z,99741.94
2022-10-14T19:00:25.153Z,99742.75
2022-10-14T19:03:27.893Z,99742.47
2022-10-14T19:06:31.234Z,99738.88
2022-10-14T19:09:34.459Z,99737.84
2022-10-14T19:12:43.516Z,99743.16
2022-10-14T19:15:51.377Z,99737.50
2022-10-14T19:19:08.001Z,99744.84
2022-10-14T19:22:10.972Z,99739.47
2022-10-14T19:25:16.510Z,99746.91
2022-10-14T19:28:19.427Z,99740.66
2022-10-14T19:31:25.236Z,99751.47
2022-10-14T19:34:28.043Z,99749.47
2022-10-14T19:37:31.186Z,99752.09
2022-10-14T19:40:34.023Z,99738.38
2022-10-14T19:43:37.472Z,99745.97
2022-10-14T19:46:40.803Z,99747.28
2022-10-14T19:49:43.916Z,99746.72
2022-10-14T19:52:46.670Z,99753.19
2022-10-14T19:55:49.786Z,99750.13
2022-10-14T19:58:54.907Z,99749.56
2022-10-14T20:01:58.091Z,99735.72
2022-10-14T20:05:01.113Z,99747.31
2022-10-14T20:08:04.040Z,99740.25
2022-10-14T20:11:12.155Z,99752.62
2022-10-14T20:14:14.910Z,99749.31
2022-10-14T20:20:20.727Z,99753.59
2022-10-14T20:23:25.310Z,99749.34
2022-10-14T20:26:28.300Z,99747.44
2022-10-14T20:29:31.479Z,99748.75
2022-10-14T20:32:34.686Z,99757.41
2022-10-14T20:35:37.720Z,99745.47
2022-10-14T20:38:41.940Z,99748.66
2022-10-14T20:41:45.182Z,99746.66
2022-10-14T20:44:47.988Z,99746.06
2022-10-14T20:47:53.732Z,99738.16
2022-10-14T20:50:56.867Z,99740.78
2022-10-14T20:54:04.022Z,99730.84
2022-10-14T20:57:07.980Z,99729.41
2022-10-14T21:00:11.478Z,99737.34
2022-10-14T21:03:14.241Z,99725.06
2022-10-14T21:06:20.177Z,99735.09
2022-10-14T21:09:22.911Z,99732.03
2022-10-14T21:12:26.476Z,99705.13
2022-10-14T21:15:29.253Z,99728.59
2022-10-14T21:18:32.246Z,99730.50
2022-10-14T21:21:45.388Z,99735.47
2022-10-14T21:24:48.636Z,99747.41
2022-10-14T21:27:51.866Z,99741.37
2022-10-14T21:30:55.056Z,99739.84
2022-10-14T21:34:05.050Z,99748.00
2022-10-14T21:37:09.015Z,99737.84
2022-10-14T21:40:12.946Z,99740.31
2022-10-14T21:43:16.054Z,99747.53
2022-10-14T21:46:18.832Z,99749.16
2022-10-14T21:49:21.997Z,99733.94
2022-10-14T21:52:25.698Z,99741.47
2022-10-14T21:55:29.220Z,99740.09
2022-10-14T21:58:32.154Z,99738.19
2022-10-14T22:01:35.290Z,99726.25
2022-10-14T22:04:38.562Z,99733.22
2022-10-14T22:07:41.373Z,99732.50
2022-10-14T22:10:45.418Z,99732.41
2022-10-14T22:13:48.887Z,99730.50
2022-10-14T22:16:52.006Z,99726.87
2022-10-14T22:19:54.826Z,99730.28
2022-10-14T22:22:59.410Z,99734.41
2022-10-14T22:26:03.395Z,99725.78
2022-10-14T22:29:11.663Z,99724.47
2022-10-14T22:32:14.427Z,99728.72
2022-10-14T22:35:17.515Z,99712.22
2022-10-14T22:38:20.391Z,99716.34
2022-10-14T22:41:24.590Z,99727.81
2022-10-14T22:44:27.283Z,99735.97
2022-10-14T22:47:30.734Z,99734.06
2022-10-14T22:50:35.445Z,99733.69
2022-10-14T22:53:40.846Z,99736.41
2022-10-14T22:56:43.844Z,99735.25
2022-10-14T22:59:46.987Z,99727.44
2022-10-14T23:02:49.739Z,99705.69
2022-10-14T23:05:52.909Z,99722.72
2022-10-14T23:08:55.786Z,99721.53
2022-10-14T23:11:58.845Z,99725.06
2022-10-14T23:15:01.741Z,99722.56
2022-10-14T23:18:06.383Z,99705.19
2022-10-14T23:21:09.182Z,99714.44
2022-10-14T23:24:12.318Z,99719.75
2022-10-14T23:27:14.955Z,99696.00
2022-10-14T23:30:18.217Z,99696.00
2022-10-14T23:33:21.130Z,99718.66
2022-10-14T23:36:24.567Z,99719.37
2022-10-14T23:39:27.355Z,99728.00
2022-10-14T23:42:30.461Z,99701.88
2022-10-14T23:45:33.205Z,99706.25
2022-10-14T23:48:36.905Z,99727.16
2022-10-14T23:51:39.701Z,99727.59
2022-10-14T23:54:42.786Z,99721.81
2022-10-14T23:57:45.642Z,99718.72
